• Join FlightAware (Why Join?)
  • Login
  • US Flag 
06:50AM EDT


 

Airport Tracker/Info


-or-


 

Live Flight TrackerFlight Track Log ✈ ASQ5861 ✈ 22-Apr-2013 ✈ KORD - KABE

Flight Track Log - Related Links

Times and Time Zones

All times are in EDT time to prevent confusion due to time zone crossing. See the ASQ5861 flight status page for this flight to view local times or setup timezone preferences in your user account.

Time Position Orientation Groundspeed Altitude Reporting Facility
EDT Latitude Longitude Course Direction KTS MPH feet Rate Location/Type
10:09PM 41.9833 -87.8667 95° East 147 169 2,400  Level Chicago TRACON
10:10PM 41.9833 -87.8167 90° East 193 222 4,000 1,920 Climbing Chicago TRACON
10:13PM 42.0050 -87.5939 82° East 272 313 8,700 1,980 Climbing Chicago Center
10:14PM 41.9936 -87.4847 98° East 292 336 10,900 1,980 Climbing Chicago Center
10:15PM 41.9367 -87.1796 95° East  Level FlightAware Approximate
10:15PM 41.9847 -87.3714 96° East 305 351 12,800  Level Chicago Center
10:16PM 41.9772 -87.2508 95° East 321 369 14,700 1,800 Climbing Chicago Center
10:17PM 41.9703 -87.1278 94° East 330 380 16,600 1,740 Climbing Chicago Center
10:18PM 41.9614 -86.9786 95° East 335 386 18,400 1,380 Climbing Chicago Center
10:19PM 41.9481 -86.8464 98° East 356 410 19,500 1,440 Climbing Chicago Center
10:20PM 41.9164 -86.7147 108° East 371 427 21,400 1,800 Climbing Chicago Center
10:21PM 41.8883 -86.5958 108° East 361 415 23,300 1,680 Climbing Chicago Center
10:22PM 41.8683 -86.4661 102° East 362 417 24,900 1,320 Climbing Chicago Center
10:23PM 41.8619 -86.2994 93° East 375 432 26,100 1,080 Climbing Chicago Center
10:24PM 41.8567 -86.1536 93° East 390 449 27,200 1,020 Climbing Chicago Center
10:25PM 41.8506 -86.0058 93° East 397 457 28,200 960 Climbing Chicago Center
10:26PM 41.8450 -85.8581 93° East 397 457 29,200 1,020 Climbing Chicago Center
10:27PM 41.8381 -85.7050 93° East 407 468 30,300 840 Climbing Chicago Center
10:28PM 41.8325 -85.5497 93° East 412 474 31,000 300 Climbing Chicago Center
10:29PM 41.8250 -85.3839 93° East 431 496 31,000  Level Chicago Center
10:30PM 41.8172 -85.2117 93° East 452 520 31,000  Level Chicago Center
10:31PM 41.8136 -85.0747 92° East 453 521 31,000  Level Cleveland Center
10:32PM 41.8019 -84.8900 95° East 453 521 31,000  Level Cleveland Center
10:33PM 41.7933 -84.7222 94° East 453 521 31,000  Level Cleveland Center
10:34PM 41.7850 -84.5517 94° East 459 528 31,000  Level Cleveland Center
10:35PM 41.7783 -84.3786 93° East 464 534 31,000  Level Cleveland Center
10:36PM 41.7756 -84.2086 91° East 464 534 31,000  Level Cleveland Center
10:37PM 41.7722 -84.0414 91° East 464 534 31,000  Level Cleveland Center
10:38PM 41.7711 -83.8658 90° East 464 534 31,000  Level Cleveland Center
10:39PM 41.7697 -83.6986 91° East 464 534 31,000  Level Cleveland Center
10:40PM 41.7594 -83.5283 95° East 464 534 31,000  Level Cleveland Center
10:41PM 41.7469 -83.3581 96° East 464 534 31,000  Level Cleveland Center
10:42PM 41.7342 -83.1933 96° East 464 534 31,000  Level Cleveland Center
10:43PM 41.7194 -83.0200 96° East 464 534 31,000  Level Cleveland Center
10:44PM 41.7061 -82.8528 96° East 464 534 31,000  Level Cleveland Center
10:45PM 41.6925 -82.6881 96° East 464 534 31,000  Level Cleveland Center
10:46PM 41.6767 -82.5236 97° East 459 528 31,000  Level Cleveland Center
10:47PM 41.6628 -82.3592 96° East 454 522 31,000  Level Cleveland Center
10:48PM 41.6506 -82.1950 96° East 449 517 31,000  Level Cleveland Center
10:49PM 41.6361 -82.0278 97° East 449 517 31,000  Level Cleveland Center
10:50PM 41.6192 -81.8608 98° East 449 517 31,000  Level Cleveland Center
10:51PM 41.6064 -81.6967 96° East 449 517 31,000  Level Cleveland Center
10:52PM 41.5911 -81.5464 98° East 449 517 31,000  Level Cleveland Center
10:53PM 41.5758 -81.3797 97° East 449 517 31,000  Level Cleveland Center
10:54PM 41.5600 -81.2158 97° East 449 517 31,000  Level Cleveland Center
10:55PM 41.5422 -81.0492 98° East 449 517 31,000  Level Cleveland Center
10:56PM 41.5239 -80.8689 98° East 449 517 31,000  Level Cleveland Center
10:57PM 41.5097 -80.7050 97° East 449 517 31,000  Level Cleveland Center
10:58PM 41.4908 -80.5361 98° East 449 517 31,000  Level Cleveland Center
10:59PM 41.4742 -80.3697 98° East 449 517 31,000  Level Cleveland Center
11:00PM 41.4592 -80.2175 97° East 449 517 31,000  Level Cleveland Center
11:01PM 41.4417 -80.0542 98° East 449 517 31,000  Level Cleveland Center
11:02PM 41.4222 -79.8881 99° East 449 517 31,000  Level Cleveland Center
11:03PM 41.4044 -79.7194 98° East 449 517 31,000  Level Cleveland Center
11:04PM 41.3883 -79.5536 97° East 449 517 31,000  Level Cleveland Center
11:05PM 41.3681 -79.3850 99° East 454 522 31,000 -480 Level Cleveland Center
11:06PM 41.3475 -79.2222 99° East 454 522 30,100 -960 Descending Cleveland Center
11:07PM 41.3286 -79.0542 98° East 454 522 29,100 -1,080 Descending Cleveland Center
11:08PM 41.3075 -78.8858 99° East 454 522 28,000 -1,080 Descending Cleveland Center
11:09PM 41.2881 -78.7150 99° East 459 528 27,000 -1,020 Descending Cleveland Center
11:10PM 41.2664 -78.5472 100° East 464 534 26,000 -840 Descending Cleveland Center
11:11PM 41.2367 -78.3036 99° East 481 554 25,000 -420 Descending New York Center
11:12PM 41.2136 -78.1383 100° East 461 531 25,000  Level New York Center
11:13PM 41.1925 -77.9706 99° East 456 525 25,000  Level New York Center
11:14PM 41.1733 -77.8058 99° East 456 525 25,000 -360 Level New York Center
11:15PM 41.1411 -77.6428 105° East 456 525 24,400 -840 Descending New York Center
11:16PM 41.1086 -77.4822 105° East 456 525 23,400 -960 Descending New York Center
11:17PM 41.0703 -77.3133 107° East 451 519 22,600 -900 Descending New York Center
11:18PM 41.0372 -77.1561 106° East 446 513 21,700 -960 Descending New York Center
11:19PM 41.0017 -77.0014 107° East 446 513 20,700 -960 Descending New York Center
11:20PM 40.9681 -76.8472 106° East 446 513 19,800 -1,080 Descending New York Center
11:21PM 40.9358 -76.6986 106° East 436 502 18,600 -1,320 Descending New York Center
11:22PM 40.9036 -76.5503 106° East 427 491 17,200 -1,680 Descending New York Center
11:23PM 40.8783 -76.4275 105° East 407 468 15,300 -1,980 Descending New York Center
11:24PM 40.8472 -76.2906 107° East 402 463 13,200 -2,220 Descending New York Center
11:25PM 40.8178 -76.1592 106° East 357 411 11,000 -1,680 Descending New York Center
11:26PM 40.7936 -76.0531 107° East 309 356 9,900 -960 Descending New York Center
11:27PM 40.7725 -75.9611 107° East 292 336 9,100 -480 Descending New York Center
11:28PM 40.7497 -75.8606 107° East 286 329 9,000 -240 Descending New York Center
11:29PM 40.7256 -75.7492 106° East 286 329 8,700 -960 Descending New York Center
11:30PM 40.7022 -75.6572 108° East 286 329 7,100 -1,680 Descending New York Center
11:31PM 40.6831 -75.5656 105° East 275 316 5,400 -1,620 Descending New York Center
11:32PM 40.6544 -75.4978 119° Southeast 233 268 3,900 -1,260 Descending New York Center
11:33PM 40.5986 -75.4858 171° South 191 220 3,000 -480 Descending New York Center
11:34PM 40.5444 -75.4875 181° South 191 220 3,000 -60 Level New York Center
11:35PM 40.5586 -75.5486 287° West 118 136 2,900 -540 Descending New York Center
11:36PM 40.5969 -75.5322 18° North 111 128 2,000 -780 Descending New York Center
11:37PM 40.6192 -75.4956 51° Northeast 111 128 1,400 -600 Descending New York Center